• Join FlightAware (Why Join?)
  • Login
  • US Flag 
08:07AM EST


 

Airport Tracker/Info


-or-


 

Live Flight TrackerFlight Track Log ✈ N1944E ✈ 16-Oct-2013 ✈ KCOD - KJAC

Flight Track Log - Related Links

Times and Time Zones

All times are in EDT time to prevent confusion due to time zone crossing. See the N1944E flight status page for this flight to view local times or setup timezone preferences in your user account.

Time Position Orientation Groundspeed Altitude Reporting Facility
EDT Latitude Longitude Course Direction KTS MPH feet Rate Location/Type
08:50AM 44.4956 -109.0742 235° Southwest 140 161 10,800  Level Salt Lake Center
08:51AM 44.4711 -109.1186 232° Southwest 142 163 11,800 960 Climbing Salt Lake Center
08:52AM 44.4486 -109.1681 237° Southwest 147 169 12,800 960 Climbing Salt Lake Center
08:53AM 44.4253 -109.2178 237° Southwest 152 175 13,800 960 Climbing Salt Lake Center
08:54AM 44.3972 -109.2642 230° Southwest 154 177 14,800 1,080 Climbing Salt Lake Center
08:56AM 44.3500 -109.3512 235° Southwest  Level Estimated
08:56AM 44.3639 -109.3228 232° Southwest 161 185 16,000  Level Salt Lake Center
08:57AM 44.3367 -109.3806 237° Southwest 172 198 16,200  Climbing Salt Lake Center
08:58AM 44.3025 -109.4425 232° Southwest 194 223 16,100 -60 Descending Salt Lake Center
08:59AM 44.2733 -109.5022 236° Southwest 199 229 16,100  Level Salt Lake Center
09:00AM 44.2372 -109.5711 234° Southwest 198 228 16,100 -60 Level Salt Lake Center
09:01AM 44.2039 -109.6314 232° Southwest 202 232 16,000 -60 Descending Salt Lake Center
09:02AM 44.1708 -109.6931 233° Southwest 205 236 16,000  Level Salt Lake Center
09:03AM 44.1381 -109.7517 232° Southwest 203 234 16,000 -60 Level Salt Lake Center
09:04AM 44.1036 -109.8236 236° Southwest 200 230 15,900  Descending Salt Lake Center
09:05AM 44.0711 -109.8808 232° Southwest 198 228 16,000  Climbing Salt Lake Center
09:05AM 44.0447 -109.9275 232° Southwest 195 224 15,900 -600 Descending Salt Lake Center
09:06AM 44.0061 -110.0000 233° Southwest 204 235 15,000 -540 Descending Salt Lake Center
09:07AM 43.9736 -110.0628 234° Southwest 209 241 14,900 -60 Descending Salt Lake Center
09:08AM 43.9456 -110.1158 234° Southwest 189 217 14,900 -300 Level Salt Lake Center
09:09AM 43.9169 -110.1675 232° Southwest 178 205 14,300 -480 Descending Salt Lake Center
09:10AM 43.8811 -110.2364 234° Southwest 187 215 14,000 -540 Descending Salt Lake Center
09:12AM 43.8544 -110.2950 238° Southwest 190 219 13,300 -720 Descending Salt Lake Center
09:13AM 43.8289 -110.3558 240° Southwest 195 224 12,600 -780 Descending Salt Lake Center
09:14AM 43.8417 -110.4339 283° West 190 219 11,800 -840 Descending Salt Lake Center
09:15AM 43.8522 -110.5028 282° West 183 211 11,000 -600 Descending Salt Lake Center
09:16AM 43.8558 -110.5642 275° West 167 192 10,600 -960 Descending Salt Lake Center
09:17AM 43.8353 -110.6267 246° West 176 203 9,100 -1,200 Descending Salt Lake Center
09:18AM 43.7872 -110.6569 204° Southwest 190 219 8,200 -600 Descending Salt Lake Center
09:19AM 43.7414 -110.6711 193° South 179 206 8,000 -120 Descending Salt Lake Center
09:20AM 43.7064 -110.6906 202° Southwest 155 178 8,000 -60 Level Salt Lake Center
09:21AM 43.6750 -110.7047 198° South 134 154 7,900 -420 Descending Salt Lake Center
09:22AM 43.6422 -110.7208 200° South 127 146 7,200 -660 Descending Salt Lake Center
09:23AM 43.6136 -110.7344 199° South 117 135 6,600 -600 Descending Salt Lake Center
09:25AM 43.6000 -110.7333 198° South  Level FlightAware Approximate
09:32AM 43.6073 -110.7377 198° South  Level Estimated
09:33AM 43.6073 -110.7377 198° South  Level Estimated
09:34AM 43.6073 -110.7377 198° South  Level Estimated
09:35AM 43.6073 -110.7377 198° South  Level Estimated
09:36AM 43.6073 -110.7377 198° South  Level Estimated
09:37AM 43.6073 -110.7377 198° South  Level Estimated